sensor_id;sensor_type;location;lat;lon;timestamp;P1;durP1;ratioP1;P2;durP2;ratioP2
34489;SDS011;20730;49.372;7.324;2023-11-21T00:00:57;4.00;;;1.40;;
34489;SDS011;20730;49.372;7.324;2023-11-21T00:03:26;4.60;;;1.40;;
34489;SDS011;20730;49.372;7.324;2023-11-21T00:05:58;3.25;;;1.60;;
34489;SDS011;20730;49.372;7.324;2023-11-21T00:08:27;2.53;;;1.40;;
34489;SDS011;20730;49.372;7.324;2023-11-21T00:10:57;2.47;;;1.65;;
34489;SDS011;20730;49.372;7.324;2023-11-21T00:13:32;5.13;;;2.13;;
34489;SDS011;20730;49.372;7.324;2023-11-21T00:15:59;2.72;;;2.20;;
34489;SDS011;20730;49.372;7.324;2023-11-21T00:18:27;5.53;;;2.20;;
34489;SDS011;20730;49.372;7.324;2023-11-21T00:20:59;4.55;;;2.33;;
34489;SDS011;20730;49.372;7.324;2023-11-21T00:23:28;3.67;;;2.58;;
34489;SDS011;20730;49.372;7.324;2023-11-21T00:25:58;7.35;;;2.55;;
34489;SDS011;20730;49.372;7.324;2023-11-21T00:28:29;3.60;;;2.30;;
34489;SDS011;20730;49.372;7.324;2023-11-21T00:30:58;3.47;;;2.30;;
34489;SDS011;20730;49.372;7.324;2023-11-21T00:33:26;7.93;;;2.40;;
34489;SDS011;20730;49.372;7.324;2023-11-21T00:35:58;6.57;;;2.45;;
34489;SDS011;20730;49.372;7.324;2023-11-21T00:38:26;6.40;;;2.58;;
34489;SDS011;20730;49.372;7.324;2023-11-21T00:40:54;4.82;;;2.58;;
34489;SDS011;20730;49.372;7.324;2023-11-21T00:43:24;6.68;;;2.67;;
34489;SDS011;20730;49.372;7.324;2023-11-21T00:45:52;4.63;;;2.97;;
34489;SDS011;20730;49.372;7.324;2023-11-21T00:48:19;4.03;;;2.58;;
34489;SDS011;20730;49.372;7.324;2023-11-21T00:50:47;5.47;;;2.65;;
34489;SDS011;20730;49.372;7.324;2023-11-21T00:53:16;5.88;;;3.05;;
34489;SDS011;20730;49.372;7.324;2023-11-21T00:55:45;3.65;;;2.53;;
34489;SDS011;20730;49.372;7.324;2023-11-21T00:58:16;4.57;;;2.70;;
34489;SDS011;20730;49.372;7.324;2023-11-21T01:00:48;8.52;;;3.25;;
34489;SDS011;20730;49.372;7.324;2023-11-21T01:03:17;6.72;;;3.05;;
34489;SDS011;20730;49.372;7.324;2023-11-21T01:05:46;4.82;;;2.88;;
34489;SDS011;20730;49.372;7.324;2023-11-21T01:10:44;4.65;;;2.95;;
34489;SDS011;20730;49.372;7.324;2023-11-21T01:13:19;6.88;;;3.17;;
34489;SDS011;20730;49.372;7.324;2023-11-21T01:15:49;3.83;;;2.58;;
34489;SDS011;20730;49.372;7.324;2023-11-21T01:18:17;6.95;;;2.70;;
34489;SDS011;20730;49.372;7.324;2023-11-21T01:20:45;4.07;;;2.70;;
34489;SDS011;20730;49.372;7.324;2023-11-21T01:23:14;3.65;;;2.38;;
34489;SDS011;20730;49.372;7.324;2023-11-21T01:25:43;3.30;;;2.13;;
34489;SDS011;20730;49.372;7.324;2023-11-21T01:28:11;5.78;;;2.20;;
34489;SDS011;20730;49.372;7.324;2023-11-21T01:31:01;2.55;;;2.20;;
34489;SDS011;20730;49.372;7.324;2023-11-21T01:33:29;2.92;;;2.00;;
34489;SDS011;20730;49.372;7.324;2023-11-21T01:35:57;3.65;;;1.90;;
34489;SDS011;20730;49.372;7.324;2023-11-21T01:38:26;5.47;;;2.40;;
34489;SDS011;20730;49.372;7.324;2023-11-21T01:40:59;1.73;;;1.60;;
34489;SDS011;20730;49.372;7.324;2023-11-21T01:43:28;3.47;;;1.90;;
34489;SDS011;20730;49.372;7.324;2023-11-21T01:45:59;2.20;;;1.90;;
34489;SDS011;20730;49.372;7.324;2023-11-21T01:48:26;4.72;;;2.00;;
34489;SDS011;20730;49.372;7.324;2023-11-21T01:50:57;3.60;;;2.03;;
34489;SDS011;20730;49.372;7.324;2023-11-21T01:53:25;4.05;;;1.75;;
34489;SDS011;20730;49.372;7.324;2023-11-21T01:55:56;3.13;;;1.70;;
34489;SDS011;20730;49.372;7.324;2023-11-21T01:58:26;2.55;;;1.77;;
34489;SDS011;20730;49.372;7.324;2023-11-21T02:00:57;2.40;;;1.80;;
34489;SDS011;20730;49.372;7.324;2023-11-21T02:03:25;2.22;;;1.80;;
34489;SDS011;20730;49.372;7.324;2023-11-21T02:05:53;2.33;;;1.70;;
34489;SDS011;20730;49.372;7.324;2023-11-21T02:08:24;1.63;;;1.52;;
34489;SDS011;20730;49.372;7.324;2023-11-21T02:13:24;2.45;;;1.95;;
34489;SDS011;20730;49.372;7.324;2023-11-21T02:15:51;2.97;;;2.00;;
34489;SDS011;20730;49.372;7.324;2023-11-21T02:18:21;2.83;;;2.20;;
34489;SDS011;20730;49.372;7.324;2023-11-21T02:20:50;3.42;;;2.03;;
34489;SDS011;20730;49.372;7.324;2023-11-21T02:23:18;3.10;;;1.95;;
34489;SDS011;20730;49.372;7.324;2023-11-21T02:25:47;2.13;;;1.92;;
34489;SDS011;20730;49.372;7.324;2023-11-21T02:28:15;2.80;;;2.03;;
34489;SDS011;20730;49.372;7.324;2023-11-21T02:30:53;2.78;;;2.08;;
34489;SDS011;20730;49.372;7.324;2023-11-21T02:33:24;3.60;;;2.40;;
34489;SDS011;20730;49.372;7.324;2023-11-21T02:35:53;3.70;;;2.08;;
34489;SDS011;20730;49.372;7.324;2023-11-21T02:38:21;3.63;;;2.30;;
34489;SDS011;20730;49.372;7.324;2023-11-21T02:40:48;3.42;;;2.00;;
34489;SDS011;20730;49.372;7.324;2023-11-21T02:43:16;2.05;;;1.80;;
34489;SDS011;20730;49.372;7.324;2023-11-21T02:45:45;2.17;;;1.98;;
34489;SDS011;20730;49.372;7.324;2023-11-21T02:48:13;2.08;;;1.88;;
34489;SDS011;20730;49.372;7.324;2023-11-21T02:50:40;3.97;;;2.17;;
34489;SDS011;20730;49.372;7.324;2023-11-21T02:53:10;2.83;;;2.55;;
34489;SDS011;20730;49.372;7.324;2023-11-21T02:55:38;2.55;;;2.35;;
34489;SDS011;20730;49.372;7.324;2023-11-21T02:58:05;4.20;;;2.42;;
34489;SDS011;20730;49.372;7.324;2023-11-21T03:00:34;3.80;;;2.33;;
34489;SDS011;20730;49.372;7.324;2023-11-21T03:03:01;3.97;;;2.50;;
34489;SDS011;20730;49.372;7.324;2023-11-21T03:05:31;4.97;;;2.75;;
34489;SDS011;20730;49.372;7.324;2023-11-21T03:08:03;5.22;;;2.75;;
34489;SDS011;20730;49.372;7.324;2023-11-21T03:10:33;3.35;;;2.97;;
34489;SDS011;20730;49.372;7.324;2023-11-21T03:13:08;6.05;;;3.08;;
34489;SDS011;20730;49.372;7.324;2023-11-21T03:15:39;3.72;;;2.90;;
34489;SDS011;20730;49.372;7.324;2023-11-21T03:18:07;4.70;;;3.00;;
34489;SDS011;20730;49.372;7.324;2023-11-21T03:20:40;4.22;;;3.33;;
34489;SDS011;20730;49.372;7.324;2023-11-21T03:23:08;3.00;;;2.67;;
34489;SDS011;20730;49.372;7.324;2023-11-21T03:25:37;3.75;;;2.70;;
34489;SDS011;20730;49.372;7.324;2023-11-21T03:28:05;4.15;;;2.58;;
34489;SDS011;20730;49.372;7.324;2023-11-21T03:30:36;2.80;;;2.58;;
34489;SDS011;20730;49.372;7.324;2023-11-21T03:33:04;2.75;;;2.47;;
34489;SDS011;20730;49.372;7.324;2023-11-21T03:35:35;3.53;;;2.70;;
34489;SDS011;20730;49.372;7.324;2023-11-21T03:38:09;3.13;;;2.83;;
34489;SDS011;20730;49.372;7.324;2023-11-21T03:40:40;6.47;;;3.00;;
34489;SDS011;20730;49.372;7.324;2023-11-21T03:43:11;6.60;;;2.80;;
34489;SDS011;20730;49.372;7.324;2023-11-21T03:45:46;3.47;;;2.50;;
34489;SDS011;20730;49.372;7.324;2023-11-21T03:48:13;1.63;;;1.50;;
34489;SDS011;20730;49.372;7.324;2023-11-21T03:50:42;2.38;;;1.35;;
34489;SDS011;20730;49.372;7.324;2023-11-21T03:53:09;1.67;;;1.35;;
34489;SDS011;20730;49.372;7.324;2023-11-21T03:55:37;1.50;;;0.90;;
34489;SDS011;20730;49.372;7.324;2023-11-21T03:58:08;3.13;;;0.60;;
34489;SDS011;20730;49.372;7.324;2023-11-21T04:00:37;3.72;;;0.68;;
34489;SDS011;20730;49.372;7.324;2023-11-21T04:03:05;0.50;;;0.40;;
34489;SDS011;20730;49.372;7.324;2023-11-21T04:05:37;0.60;;;0.60;;
34489;SDS011;20730;49.372;7.324;2023-11-21T04:08:08;1.95;;;0.50;;
34489;SDS011;20730;49.372;7.324;2023-11-21T04:10:35;0.85;;;0.50;;
34489;SDS011;20730;49.372;7.324;2023-11-21T04:13:03;0.40;;;0.40;;
34489;SDS011;20730;49.372;7.324;2023-11-21T04:15:30;1.63;;;0.60;;
34489;SDS011;20730;49.372;7.324;2023-11-21T04:17:57;1.90;;;0.47;;
34489;SDS011;20730;49.372;7.324;2023-11-21T04:20:25;0.60;;;0.57;;
34489;SDS011;20730;49.372;7.324;2023-11-21T04:22:53;0.82;;;0.55;;
34489;SDS011;20730;49.372;7.324;2023-11-21T04:25:21;1.77;;;0.40;;
34489;SDS011;20730;49.372;7.324;2023-11-21T04:27:51;0.75;;;0.32;;
34489;SDS011;20730;49.372;7.324;2023-11-21T04:30:22;0.45;;;0.40;;
34489;SDS011;20730;49.372;7.324;2023-11-21T04:35:20;0.60;;;0.40;;
34489;SDS011;20730;49.372;7.324;2023-11-21T04:37:49;1.75;;;0.40;;
34489;SDS011;20730;49.372;7.324;2023-11-21T04:40:18;0.40;;;0.40;;
34489;SDS011;20730;49.372;7.324;2023-11-21T04:42:48;0.40;;;0.40;;
34489;SDS011;20730;49.372;7.324;2023-11-21T04:45:16;0.68;;;0.40;;
34489;SDS011;20730;49.372;7.324;2023-11-21T04:47:44;2.05;;;0.40;;
34489;SDS011;20730;49.372;7.324;2023-11-21T04:50:20;0.40;;;0.40;;
34489;SDS011;20730;49.372;7.324;2023-11-21T04:52:50;1.88;;;0.60;;
34489;SDS011;20730;49.372;7.324;2023-11-21T04:55:17;1.10;;;0.50;;
34489;SDS011;20730;49.372;7.324;2023-11-21T04:57:47;0.40;;;0.40;;
34489;SDS011;20730;49.372;7.324;2023-11-21T05:00:15;0.70;;;0.40;;
34489;SDS011;20730;49.372;7.324;2023-11-21T05:02:53;0.40;;;0.40;;
34489;SDS011;20730;49.372;7.324;2023-11-21T05:05:25;1.17;;;0.50;;
34489;SDS011;20730;49.372;7.324;2023-11-21T05:07:53;0.88;;;0.47;;
34489;SDS011;20730;49.372;7.324;2023-11-21T05:10:24;1.17;;;0.45;;
34489;SDS011;20730;49.372;7.324;2023-11-21T05:12:52;0.52;;;0.40;;
34489;SDS011;20730;49.372;7.324;2023-11-21T05:15:20;1.33;;;0.35;;
34489;SDS011;20730;49.372;7.324;2023-11-21T05:17:49;1.88;;;0.50;;
34489;SDS011;20730;49.372;7.324;2023-11-21T05:22:51;0.47;;;0.47;;
34489;SDS011;20730;49.372;7.324;2023-11-21T05:25:21;1.05;;;0.50;;
34489;SDS011;20730;49.372;7.324;2023-11-21T05:27:49;0.73;;;0.50;;
34489;SDS011;20730;49.372;7.324;2023-11-21T05:30:16;1.70;;;0.73;;
34489;SDS011;20730;49.372;7.324;2023-11-21T05:32:43;1.42;;;0.50;;
34489;SDS011;20730;49.372;7.324;2023-11-21T05:35:11;1.70;;;0.70;;
34489;SDS011;20730;49.372;7.324;2023-11-21T05:37:45;2.35;;;0.80;;
34489;SDS011;20730;49.372;7.324;2023-11-21T05:40:14;1.58;;;0.85;;
34489;SDS011;20730;49.372;7.324;2023-11-21T05:42:43;0.98;;;0.80;;
34489;SDS011;20730;49.372;7.324;2023-11-21T05:45:14;0.70;;;0.70;;
34489;SDS011;20730;49.372;7.324;2023-11-21T05:47:45;1.58;;;0.80;;
34489;SDS011;20730;49.372;7.324;2023-11-21T05:50:14;2.03;;;0.98;;
34489;SDS011;20730;49.372;7.324;2023-11-21T05:52:49;1.45;;;1.00;;
34489;SDS011;20730;49.372;7.324;2023-11-21T05:55:17;1.83;;;1.30;;
34489;SDS011;20730;49.372;7.324;2023-11-21T05:58:02;2.72;;;1.20;;
34489;SDS011;20730;49.372;7.324;2023-11-21T06:00:32;1.20;;;1.10;;
34489;SDS011;20730;49.372;7.324;2023-11-21T06:03:03;2.05;;;1.20;;
34489;SDS011;20730;49.372;7.324;2023-11-21T06:05:34;2.88;;;1.17;;
34489;SDS011;20730;49.372;7.324;2023-11-21T06:10:32;2.13;;;1.40;;
34489;SDS011;20730;49.372;7.324;2023-11-21T06:13:00;3.47;;;1.60;;
34489;SDS011;20730;49.372;7.324;2023-11-21T06:15:30;2.90;;;1.70;;
34489;SDS011;20730;49.372;7.324;2023-11-21T06:17:59;1.85;;;1.52;;
34489;SDS011;20730;49.372;7.324;2023-11-21T06:20:30;3.05;;;1.38;;
34489;SDS011;20730;49.372;7.324;2023-11-21T06:22:59;2.28;;;1.48;;
34489;SDS011;20730;49.372;7.324;2023-11-21T06:25:31;3.55;;;1.52;;
34489;SDS011;20730;49.372;7.324;2023-11-21T06:28:11;2.35;;;1.63;;
34489;SDS011;20730;49.372;7.324;2023-11-21T06:30:41;6.07;;;1.55;;
34489;SDS011;20730;49.372;7.324;2023-11-21T06:33:09;1.42;;;1.33;;
34489;SDS011;20730;49.372;7.324;2023-11-21T06:35:37;1.83;;;1.60;;
34489;SDS011;20730;49.372;7.324;2023-11-21T06:38:03;3.25;;;1.48;;
34489;SDS011;20730;49.372;7.324;2023-11-21T06:40:30;2.35;;;1.70;;
34489;SDS011;20730;49.372;7.324;2023-11-21T06:43:00;2.90;;;1.60;;
34489;SDS011;20730;49.372;7.324;2023-11-21T06:45:26;1.77;;;1.60;;
34489;SDS011;20730;49.372;7.324;2023-11-21T06:47:53;2.83;;;1.92;;
34489;SDS011;20730;49.372;7.324;2023-11-21T06:50:20;2.22;;;1.60;;
34489;SDS011;20730;49.372;7.324;2023-11-21T06:52:47;3.03;;;1.88;;
34489;SDS011;20730;49.372;7.324;2023-11-21T06:55:15;2.40;;;1.77;;
34489;SDS011;20730;49.372;7.324;2023-11-21T06:57:42;2.00;;;1.80;;
34489;SDS011;20730;49.372;7.324;2023-11-21T07:00:09;4.65;;;1.90;;
34489;SDS011;20730;49.372;7.324;2023-11-21T07:02:37;4.20;;;2.30;;
34489;SDS011;20730;49.372;7.324;2023-11-21T07:05:09;3.67;;;1.80;;
34489;SDS011;20730;49.372;7.324;2023-11-21T07:07:37;1.98;;;1.77;;
34489;SDS011;20730;49.372;7.324;2023-11-21T07:10:06;2.05;;;1.80;;
34489;SDS011;20730;49.372;7.324;2023-11-21T07:12:34;3.50;;;2.10;;
34489;SDS011;20730;49.372;7.324;2023-11-21T07:15:01;3.78;;;2.08;;
34489;SDS011;20730;49.372;7.324;2023-11-21T07:17:29;3.67;;;2.10;;
34489;SDS011;20730;49.372;7.324;2023-11-21T07:19:56;4.13;;;1.90;;
34489;SDS011;20730;49.372;7.324;2023-11-21T07:22:23;4.97;;;1.75;;
34489;SDS011;20730;49.372;7.324;2023-11-21T07:24:50;2.22;;;1.90;;
34489;SDS011;20730;49.372;7.324;2023-11-21T07:27:19;2.30;;;2.08;;
34489;SDS011;20730;49.372;7.324;2023-11-21T07:29:47;3.03;;;1.90;;
34489;SDS011;20730;49.372;7.324;2023-11-21T07:32:14;2.10;;;1.65;;
34489;SDS011;20730;49.372;7.324;2023-11-21T07:34:42;3.33;;;1.80;;
34489;SDS011;20730;49.372;7.324;2023-11-21T07:37:10;3.17;;;1.65;;
34489;SDS011;20730;49.372;7.324;2023-11-21T07:39:37;2.88;;;1.70;;
34489;SDS011;20730;49.372;7.324;2023-11-21T07:42:08;2.13;;;1.90;;
34489;SDS011;20730;49.372;7.324;2023-11-21T07:44:35;2.70;;;1.80;;
34489;SDS011;20730;49.372;7.324;2023-11-21T07:47:02;2.85;;;1.98;;
34489;SDS011;20730;49.372;7.324;2023-11-21T07:49:29;4.15;;;1.88;;
34489;SDS011;20730;49.372;7.324;2023-11-21T07:51:55;3.00;;;1.70;;
34489;SDS011;20730;49.372;7.324;2023-11-21T07:54:22;4.45;;;2.00;;
34489;SDS011;20730;49.372;7.324;2023-11-21T07:56:51;3.75;;;1.80;;
34489;SDS011;20730;49.372;7.324;2023-11-21T07:59:17;4.25;;;2.08;;
34489;SDS011;20730;49.372;7.324;2023-11-21T08:01:44;3.17;;;2.00;;
34489;SDS011;20730;49.372;7.324;2023-11-21T08:04:12;2.38;;;1.80;;
34489;SDS011;20730;49.372;7.324;2023-11-21T08:06:39;4.40;;;1.90;;
34489;SDS011;20730;49.372;7.324;2023-11-21T08:09:07;3.17;;;2.15;;
34489;SDS011;20730;49.372;7.324;2023-11-21T08:11:34;3.53;;;2.10;;
34489;SDS011;20730;49.372;7.324;2023-11-21T08:14:01;3.70;;;2.10;;
34489;SDS011;20730;49.372;7.324;2023-11-21T08:16:28;6.75;;;2.88;;
34489;SDS011;20730;49.372;7.324;2023-11-21T08:18:55;3.35;;;2.60;;
34489;SDS011;20730;49.372;7.324;2023-11-21T08:21:22;4.05;;;2.20;;
34489;SDS011;20730;49.372;7.324;2023-11-21T08:23:54;4.82;;;2.88;;
34489;SDS011;20730;49.372;7.324;2023-11-21T08:26:21;3.53;;;2.60;;
34489;SDS011;20730;49.372;7.324;2023-11-21T08:28:49;6.13;;;2.70;;
34489;SDS011;20730;49.372;7.324;2023-11-21T08:31:16;3.45;;;2.45;;
34489;SDS011;20730;49.372;7.324;2023-11-21T08:33:42;3.90;;;2.55;;
34489;SDS011;20730;49.372;7.324;2023-11-21T08:36:09;6.70;;;3.53;;
34489;SDS011;20730;49.372;7.324;2023-11-21T08:38:38;4.30;;;2.90;;
34489;SDS011;20730;49.372;7.324;2023-11-21T08:41:05;5.93;;;2.80;;
34489;SDS011;20730;49.372;7.324;2023-11-21T08:43:36;3.47;;;2.10;;
34489;SDS011;20730;49.372;7.324;2023-11-21T08:46:06;6.50;;;2.55;;
34489;SDS011;20730;49.372;7.324;2023-11-21T08:51:03;5.53;;;2.38;;
34489;SDS011;20730;49.372;7.324;2023-11-21T08:53:31;5.78;;;2.10;;
34489;SDS011;20730;49.372;7.324;2023-11-21T08:55:57;2.85;;;1.80;;
34489;SDS011;20730;49.372;7.324;2023-11-21T08:58:25;4.22;;;1.92;;
34489;SDS011;20730;49.372;7.324;2023-11-21T09:00:51;3.08;;;1.88;;
34489;SDS011;20730;49.372;7.324;2023-11-21T09:03:18;4.50;;;1.80;;
34489;SDS011;20730;49.372;7.324;2023-11-21T09:05:45;3.28;;;1.98;;
34489;SDS011;20730;49.372;7.324;2023-11-21T09:08:12;4.97;;;2.17;;
34489;SDS011;20730;49.372;7.324;2023-11-21T09:10:39;5.35;;;1.90;;
34489;SDS011;20730;49.372;7.324;2023-11-21T09:13:06;3.03;;;2.03;;
34489;SDS011;20730;49.372;7.324;2023-11-21T09:15:35;2.55;;;1.70;;
34489;SDS011;20730;49.372;7.324;2023-11-21T09:18:02;5.38;;;1.95;;
34489;SDS011;20730;49.372;7.324;2023-11-21T09:20:29;3.53;;;1.85;;
34489;SDS011;20730;49.372;7.324;2023-11-21T09:22:55;2.80;;;1.75;;
34489;SDS011;20730;49.372;7.324;2023-11-21T09:25:22;3.38;;;1.80;;
34489;SDS011;20730;49.372;7.324;2023-11-21T09:27:49;3.72;;;1.70;;
34489;SDS011;20730;49.372;7.324;2023-11-21T09:30:16;2.08;;;1.63;;
34489;SDS011;20730;49.372;7.324;2023-11-21T09:32:46;4.45;;;2.03;;
34489;SDS011;20730;49.372;7.324;2023-11-21T09:35:16;4.38;;;1.50;;
34489;SDS011;20730;49.372;7.324;2023-11-21T09:37:45;3.05;;;1.60;;
34489;SDS011;20730;49.372;7.324;2023-11-21T09:40:17;2.70;;;1.83;;
34489;SDS011;20730;49.372;7.324;2023-11-21T09:42:54;3.05;;;1.60;;
34489;SDS011;20730;49.372;7.324;2023-11-21T09:45:28;1.90;;;1.42;;
34489;SDS011;20730;49.372;7.324;2023-11-21T09:47:59;2.65;;;1.50;;
34489;SDS011;20730;49.372;7.324;2023-11-21T09:50:32;1.83;;;1.60;;
34489;SDS011;20730;49.372;7.324;2023-11-21T09:55:37;3.20;;;1.38;;
34489;SDS011;20730;49.372;7.324;2023-11-21T09:58:06;2.50;;;1.60;;
34489;SDS011;20730;49.372;7.324;2023-11-21T10:00:36;3.00;;;1.60;;
34489;SDS011;20730;49.372;7.324;2023-11-21T10:03:03;2.92;;;1.40;;
34489;SDS011;20730;49.372;7.324;2023-11-21T10:05:34;2.95;;;1.70;;
34489;SDS011;20730;49.372;7.324;2023-11-21T10:08:10;1.42;;;1.33;;
34489;SDS011;20730;49.372;7.324;2023-11-21T10:10:45;1.30;;;1.20;;
34489;SDS011;20730;49.372;7.324;2023-11-21T10:13:15;2.33;;;1.73;;
34489;SDS011;20730;49.372;7.324;2023-11-21T10:15:50;2.42;;;1.40;;
34489;SDS011;20730;49.372;7.324;2023-11-21T10:18:20;2.75;;;1.60;;
34489;SDS011;20730;49.372;7.324;2023-11-21T10:20:51;1.80;;;1.35;;
34489;SDS011;20730;49.372;7.324;2023-11-21T10:23:21;2.47;;;1.95;;
34489;SDS011;20730;49.372;7.324;2023-11-21T10:25:52;3.00;;;1.90;;
34489;SDS011;20730;49.372;7.324;2023-11-21T10:28:22;2.75;;;1.73;;
34489;SDS011;20730;49.372;7.324;2023-11-21T10:30:50;3.38;;;2.20;;
34489;SDS011;20730;49.372;7.324;2023-11-21T10:33:26;2.08;;;1.45;;
34489;SDS011;20730;49.372;7.324;2023-11-21T10:35:59;3.92;;;2.70;;
34489;SDS011;20730;49.372;7.324;2023-11-21T10:38:41;3.33;;;2.00;;
34489;SDS011;20730;49.372;7.324;2023-11-21T10:41:11;4.95;;;2.75;;
34489;SDS011;20730;49.372;7.324;2023-11-21T10:43:43;5.50;;;2.80;;
34489;SDS011;20730;49.372;7.324;2023-11-21T10:46:15;3.53;;;2.65;;
34489;SDS011;20730;49.372;7.324;2023-11-21T10:48:51;3.05;;;2.00;;
34489;SDS011;20730;49.372;7.324;2023-11-21T10:51:25;4.07;;;2.45;;
34489;SDS011;20730;49.372;7.324;2023-11-21T10:53:54;2.17;;;1.77;;
34489;SDS011;20730;49.372;7.324;2023-11-21T10:56:25;5.43;;;1.90;;
34489;SDS011;20730;49.372;7.324;2023-11-21T10:58:56;3.58;;;2.55;;
34489;SDS011;20730;49.372;7.324;2023-11-21T11:01:31;4.30;;;3.28;;
34489;SDS011;20730;49.372;7.324;2023-11-21T11:04:06;3.63;;;2.75;;
34489;SDS011;20730;49.372;7.324;2023-11-21T11:06:46;3.10;;;2.20;;
34489;SDS011;20730;49.372;7.324;2023-11-21T11:09:29;6.75;;;3.08;;
34489;SDS011;20730;49.372;7.324;2023-11-21T11:12:08;5.05;;;2.72;;
34489;SDS011;20730;49.372;7.324;2023-11-21T11:14:40;1.70;;;1.40;;
34489;SDS011;20730;49.372;7.324;2023-11-21T11:17:08;3.38;;;1.92;;
34489;SDS011;20730;49.372;7.324;2023-11-21T11:19:36;3.80;;;2.17;;
34489;SDS011;20730;49.372;7.324;2023-11-21T11:22:41;2.60;;;2.03;;
34489;SDS011;20730;49.372;7.324;2023-11-21T11:25:07;4.90;;;2.65;;
34489;SDS011;20730;49.372;7.324;2023-11-21T11:33:21;4.65;;;2.97;;
34489;SDS011;20730;49.372;7.324;2023-11-21T11:36:47;3.65;;;2.65;;
34489;SDS011;20730;49.372;7.324;2023-11-21T11:38:57;4.88;;;3.03;;
34489;SDS011;20730;49.372;7.324;2023-11-21T11:41:26;4.72;;;3.78;;
34489;SDS011;20730;49.372;7.324;2023-11-21T11:43:59;4.30;;;2.42;;
34489;SDS011;20730;49.372;7.324;2023-11-21T11:46:47;3.45;;;2.08;;
34489;SDS011;20730;49.372;7.324;2023-11-21T11:49:27;3.05;;;2.03;;
34489;SDS011;20730;49.372;7.324;2023-11-21T11:55:03;7.93;;;3.47;;
34489;SDS011;20730;49.372;7.324;2023-11-21T11:57:33;5.37;;;3.13;;
34489;SDS011;20730;49.372;7.324;2023-11-21T12:00:12;4.63;;;2.85;;
34489;SDS011;20730;49.372;7.324;2023-11-21T12:02:50;6.65;;;3.90;;
34489;SDS011;20730;49.372;7.324;2023-11-21T12:05:19;5.30;;;3.35;;
34489;SDS011;20730;49.372;7.324;2023-11-21T12:07:52;7.13;;;3.50;;
34489;SDS011;20730;49.372;7.324;2023-11-21T12:10:24;6.95;;;3.85;;
34489;SDS011;20730;49.372;7.324;2023-11-21T12:12:52;6.85;;;3.22;;
34489;SDS011;20730;49.372;7.324;2023-11-21T12:15:19;6.45;;;3.17;;
34489;SDS011;20730;49.372;7.324;2023-11-21T12:17:49;6.38;;;3.50;;
34489;SDS011;20730;49.372;7.324;2023-11-21T12:20:19;4.95;;;3.50;;
34489;SDS011;20730;49.372;7.324;2023-11-21T12:22:48;7.60;;;3.88;;
34489;SDS011;20730;49.372;7.324;2023-11-21T12:25:19;6.45;;;3.47;;
34489;SDS011;20730;49.372;7.324;2023-11-21T12:27:49;6.53;;;4.28;;
34489;SDS011;20730;49.372;7.324;2023-11-21T12:30:18;6.53;;;4.10;;
34489;SDS011;20730;49.372;7.324;2023-11-21T12:32:52;6.90;;;3.45;;
34489;SDS011;20730;49.372;7.324;2023-11-21T12:35:22;6.50;;;4.53;;
34489;SDS011;20730;49.372;7.324;2023-11-21T12:37:51;7.00;;;6.00;;
34489;SDS011;20730;49.372;7.324;2023-11-21T12:40:19;8.25;;;6.20;;
34489;SDS011;20730;49.372;7.324;2023-11-21T12:42:47;9.90;;;6.03;;
34489;SDS011;20730;49.372;7.324;2023-11-21T12:47:51;7.70;;;3.55;;
34489;SDS011;20730;49.372;7.324;2023-11-21T12:50:28;6.85;;;3.70;;
34489;SDS011;20730;49.372;7.324;2023-11-21T12:53:06;4.85;;;3.40;;
34489;SDS011;20730;49.372;7.324;2023-11-21T12:55:43;7.78;;;4.13;;
34489;SDS011;20730;49.372;7.324;2023-11-21T12:58:19;6.90;;;4.05;;
34489;SDS011;20730;49.372;7.324;2023-11-21T13:00:48;8.27;;;5.97;;
34489;SDS011;20730;49.372;7.324;2023-11-21T13:03:16;8.77;;;5.30;;
34489;SDS011;20730;49.372;7.324;2023-11-21T13:05:47;7.03;;;4.28;;
34489;SDS011;20730;49.372;7.324;2023-11-21T13:08:20;8.95;;;5.40;;
34489;SDS011;20730;49.372;7.324;2023-11-21T13:10:50;7.18;;;4.55;;
34489;SDS011;20730;49.372;7.324;2023-11-21T13:13:25;7.65;;;4.90;;
34489;SDS011;20730;49.372;7.324;2023-11-21T13:15:56;6.78;;;4.38;;
34489;SDS011;20730;49.372;7.324;2023-11-21T13:18:32;8.75;;;4.00;;
34489;SDS011;20730;49.372;7.324;2023-11-21T13:21:01;5.72;;;3.83;;
34489;SDS011;20730;49.372;7.324;2023-11-21T13:23:36;8.65;;;4.53;;
34489;SDS011;20730;49.372;7.324;2023-11-21T13:26:04;9.50;;;4.57;;
34489;SDS011;20730;49.372;7.324;2023-11-21T13:28:33;9.30;;;5.45;;
34489;SDS011;20730;49.372;7.324;2023-11-21T13:31:03;8.82;;;4.88;;
34489;SDS011;20730;49.372;7.324;2023-11-21T13:33:48;5.68;;;4.03;;
34489;SDS011;20730;49.372;7.324;2023-11-21T13:36:23;7.35;;;4.30;;
34489;SDS011;20730;49.372;7.324;2023-11-21T13:38:51;7.68;;;4.40;;
34489;SDS011;20730;49.372;7.324;2023-11-21T13:41:19;9.15;;;4.00;;
34489;SDS011;20730;49.372;7.324;2023-11-21T13:43:46;6.80;;;4.03;;
34489;SDS011;20730;49.372;7.324;2023-11-21T13:46:20;8.40;;;3.97;;
34489;SDS011;20730;49.372;7.324;2023-11-21T13:48:49;9.05;;;4.65;;
34489;SDS011;20730;49.372;7.324;2023-11-21T13:51:23;8.52;;;4.28;;
34489;SDS011;20730;49.372;7.324;2023-11-21T13:54:05;6.03;;;4.50;;
34489;SDS011;20730;49.372;7.324;2023-11-21T13:56:36;8.45;;;5.35;;
34489;SDS011;20730;49.372;7.324;2023-11-21T13:59:03;9.02;;;5.03;;
34489;SDS011;20730;49.372;7.324;2023-11-21T14:01:53;9.27;;;5.68;;
34489;SDS011;20730;49.372;7.324;2023-11-21T14:04:26;8.60;;;4.55;;
34489;SDS011;20730;49.372;7.324;2023-11-21T14:06:59;7.22;;;4.88;;
34489;SDS011;20730;49.372;7.324;2023-11-21T14:09:37;9.63;;;4.93;;
34489;SDS011;20730;49.372;7.324;2023-11-21T14:12:11;10.20;;;5.30;;
34489;SDS011;20730;49.372;7.324;2023-11-21T14:14:41;8.38;;;5.00;;
34489;SDS011;20730;49.372;7.324;2023-11-21T14:17:07;9.45;;;6.07;;
34489;SDS011;20730;49.372;7.324;2023-11-21T14:19:36;7.40;;;5.18;;
34489;SDS011;20730;49.372;7.324;2023-11-21T14:22:07;10.10;;;5.75;;
34489;SDS011;20730;49.372;7.324;2023-11-21T14:24:37;10.05;;;5.38;;
34489;SDS011;20730;49.372;7.324;2023-11-21T14:27:04;8.55;;;5.75;;
34489;SDS011;20730;49.372;7.324;2023-11-21T14:29:32;8.73;;;6.03;;
34489;SDS011;20730;49.372;7.324;2023-11-21T14:32:05;8.80;;;6.65;;
34489;SDS011;20730;49.372;7.324;2023-11-21T14:34:32;11.43;;;6.60;;
34489;SDS011;20730;49.372;7.324;2023-11-21T14:36:59;11.48;;;7.50;;
34489;SDS011;20730;49.372;7.324;2023-11-21T14:39:29;10.30;;;5.82;;
34489;SDS011;20730;49.372;7.324;2023-11-21T14:41:56;10.82;;;6.05;;
34489;SDS011;20730;49.372;7.324;2023-11-21T14:44:24;9.88;;;6.68;;
34489;SDS011;20730;49.372;7.324;2023-11-21T14:46:54;10.57;;;6.75;;
34489;SDS011;20730;49.372;7.324;2023-11-21T14:49:24;12.98;;;7.15;;
34489;SDS011;20730;49.372;7.324;2023-11-21T14:51:54;11.07;;;7.93;;
34489;SDS011;20730;49.372;7.324;2023-11-21T14:54:30;10.63;;;6.40;;
34489;SDS011;20730;49.372;7.324;2023-11-21T14:57:08;11.57;;;7.90;;
34489;SDS011;20730;49.372;7.324;2023-11-21T14:59:43;9.23;;;6.13;;
34489;SDS011;20730;49.372;7.324;2023-11-21T15:02:13;10.45;;;6.32;;
34489;SDS011;20730;49.372;7.324;2023-11-21T15:04:42;11.25;;;6.93;;
34489;SDS011;20730;49.372;7.324;2023-11-21T15:07:09;10.82;;;6.90;;
34489;SDS011;20730;49.372;7.324;2023-11-21T15:09:40;10.45;;;6.60;;
34489;SDS011;20730;49.372;7.324;2023-11-21T15:12:12;10.00;;;6.20;;
34489;SDS011;20730;49.372;7.324;2023-11-21T15:14:45;14.43;;;6.50;;
34489;SDS011;20730;49.372;7.324;2023-11-21T15:17:14;9.13;;;6.70;;
34489;SDS011;20730;49.372;7.324;2023-11-21T15:19:50;12.75;;;6.78;;
34489;SDS011;20730;49.372;7.324;2023-11-21T15:22:17;10.55;;;6.47;;
34489;SDS011;20730;49.372;7.324;2023-11-21T15:24:44;11.50;;;7.00;;
34489;SDS011;20730;49.372;7.324;2023-11-21T15:29:43;11.20;;;5.85;;
34489;SDS011;20730;49.372;7.324;2023-11-21T15:32:11;10.63;;;6.65;;
34489;SDS011;20730;49.372;7.324;2023-11-21T15:34:40;11.57;;;6.60;;
34489;SDS011;20730;49.372;7.324;2023-11-21T15:37:08;10.50;;;6.25;;